sensor_id;sensor_type;location;lat;lon;timestamp;P1;durP1;ratioP1;P2;durP2;ratioP2
24161;SDS011;12318;51.262;7.066;2023-08-06T00:00:37;6.32;;;3.20;;
24161;SDS011;12318;51.262;7.066;2023-08-06T00:03:03;7.63;;;3.25;;
24161;SDS011;12318;51.262;7.066;2023-08-06T00:05:29;6.40;;;3.10;;
24161;SDS011;12318;51.262;7.066;2023-08-06T00:07:55;8.38;;;3.60;;
24161;SDS011;12318;51.262;7.066;2023-08-06T00:10:21;7.70;;;3.50;;
24161;SDS011;12318;51.262;7.066;2023-08-06T00:12:48;7.90;;;3.70;;
24161;SDS011;12318;51.262;7.066;2023-08-06T00:15:14;7.47;;;3.63;;
24161;SDS011;12318;51.262;7.066;2023-08-06T00:17:40;7.43;;;3.83;;
24161;SDS011;12318;51.262;7.066;2023-08-06T00:20:06;7.22;;;3.30;;
24161;SDS011;12318;51.262;7.066;2023-08-06T00:22:36;7.32;;;3.30;;
24161;SDS011;12318;51.262;7.066;2023-08-06T00:25:03;9.48;;;3.55;;
24161;SDS011;12318;51.262;7.066;2023-08-06T00:27:29;4.45;;;3.30;;
24161;SDS011;12318;51.262;7.066;2023-08-06T00:29:55;4.85;;;3.40;;
24161;SDS011;12318;51.262;7.066;2023-08-06T00:32:21;6.97;;;3.33;;
24161;SDS011;12318;51.262;7.066;2023-08-06T00:34:48;6.57;;;3.25;;
24161;SDS011;12318;51.262;7.066;2023-08-06T00:37:15;7.82;;;3.42;;
24161;SDS011;12318;51.262;7.066;2023-08-06T00:39:41;6.20;;;3.45;;
24161;SDS011;12318;51.262;7.066;2023-08-06T00:42:08;8.35;;;3.20;;
24161;SDS011;12318;51.262;7.066;2023-08-06T00:44:34;7.53;;;2.95;;
24161;SDS011;12318;51.262;7.066;2023-08-06T00:47:01;6.78;;;3.67;;
24161;SDS011;12318;51.262;7.066;2023-08-06T00:49:27;8.82;;;3.35;;
24161;SDS011;12318;51.262;7.066;2023-08-06T00:51:53;6.05;;;3.13;;
24161;SDS011;12318;51.262;7.066;2023-08-06T00:54:19;10.10;;;3.38;;
24161;SDS011;12318;51.262;7.066;2023-08-06T00:56:45;7.78;;;3.13;;
24161;SDS011;12318;51.262;7.066;2023-08-06T00:59:12;6.20;;;3.05;;
24161;SDS011;12318;51.262;7.066;2023-08-06T01:01:38;14.52;;;3.63;;
24161;SDS011;12318;51.262;7.066;2023-08-06T01:04:05;7.30;;;3.90;;
24161;SDS011;12318;51.262;7.066;2023-08-06T01:06:35;8.85;;;3.60;;
24161;SDS011;12318;51.262;7.066;2023-08-06T01:13:58;5.70;;;3.70;;
24161;SDS011;12318;51.262;7.066;2023-08-06T01:16:25;6.53;;;3.55;;
24161;SDS011;12318;51.262;7.066;2023-08-06T01:18:52;8.18;;;3.67;;
24161;SDS011;12318;51.262;7.066;2023-08-06T01:21:18;6.13;;;3.60;;
24161;SDS011;12318;51.262;7.066;2023-08-06T01:23:45;9.70;;;4.20;;
24161;SDS011;12318;51.262;7.066;2023-08-06T01:28:44;6.30;;;4.00;;
24161;SDS011;12318;51.262;7.066;2023-08-06T01:31:18;7.05;;;3.60;;
24161;SDS011;12318;51.262;7.066;2023-08-06T01:33:47;7.63;;;3.75;;
24161;SDS011;12318;51.262;7.066;2023-08-06T01:36:15;7.13;;;3.80;;
24161;SDS011;12318;51.262;7.066;2023-08-06T01:38:42;8.05;;;3.88;;
24161;SDS011;12318;51.262;7.066;2023-08-06T01:41:08;6.55;;;4.20;;
24161;SDS011;12318;51.262;7.066;2023-08-06T01:43:35;5.57;;;3.63;;
24161;SDS011;12318;51.262;7.066;2023-08-06T01:46:02;5.88;;;3.20;;
24161;SDS011;12318;51.262;7.066;2023-08-06T01:48:28;9.85;;;3.63;;
24161;SDS011;12318;51.262;7.066;2023-08-06T01:50:54;5.10;;;3.30;;
24161;SDS011;12318;51.262;7.066;2023-08-06T01:53:21;7.55;;;3.88;;
24161;SDS011;12318;51.262;7.066;2023-08-06T01:55:49;4.38;;;3.40;;
24161;SDS011;12318;51.262;7.066;2023-08-06T01:58:15;8.30;;;3.70;;
24161;SDS011;12318;51.262;7.066;2023-08-06T02:00:42;7.78;;;3.65;;
24161;SDS011;12318;51.262;7.066;2023-08-06T02:03:08;7.50;;;3.75;;
24161;SDS011;12318;51.262;7.066;2023-08-06T02:05:34;8.00;;;3.90;;
24161;SDS011;12318;51.262;7.066;2023-08-06T02:08:00;7.88;;;3.60;;
24161;SDS011;12318;51.262;7.066;2023-08-06T02:10:26;5.68;;;3.50;;
24161;SDS011;12318;51.262;7.066;2023-08-06T02:12:52;6.60;;;3.60;;
24161;SDS011;12318;51.262;7.066;2023-08-06T02:15:18;6.53;;;3.80;;
24161;SDS011;12318;51.262;7.066;2023-08-06T02:17:44;10.52;;;4.32;;
24161;SDS011;12318;51.262;7.066;2023-08-06T02:20:13;7.18;;;3.83;;
24161;SDS011;12318;51.262;7.066;2023-08-06T02:22:39;5.38;;;3.00;;
24161;SDS011;12318;51.262;7.066;2023-08-06T02:25:06;6.05;;;3.63;;
24161;SDS011;12318;51.262;7.066;2023-08-06T02:27:32;6.03;;;3.40;;
24161;SDS011;12318;51.262;7.066;2023-08-06T02:29:58;5.30;;;2.97;;
24161;SDS011;12318;51.262;7.066;2023-08-06T02:32:24;7.70;;;3.65;;
24161;SDS011;12318;51.262;7.066;2023-08-06T02:34:50;7.22;;;3.05;;
24161;SDS011;12318;51.262;7.066;2023-08-06T02:37:16;6.20;;;3.60;;
24161;SDS011;12318;51.262;7.066;2023-08-06T02:39:42;5.07;;;3.03;;
24161;SDS011;12318;51.262;7.066;2023-08-06T02:42:08;5.47;;;3.17;;
24161;SDS011;12318;51.262;7.066;2023-08-06T02:44:35;4.38;;;3.20;;
24161;SDS011;12318;51.262;7.066;2023-08-06T02:47:01;6.85;;;3.60;;
24161;SDS011;12318;51.262;7.066;2023-08-06T02:49:27;6.22;;;3.20;;
24161;SDS011;12318;51.262;7.066;2023-08-06T02:51:53;5.22;;;3.10;;
24161;SDS011;12318;51.262;7.066;2023-08-06T02:54:19;5.10;;;3.10;;
24161;SDS011;12318;51.262;7.066;2023-08-06T02:56:45;6.78;;;3.47;;
24161;SDS011;12318;51.262;7.066;2023-08-06T02:59:12;5.18;;;3.25;;
24161;SDS011;12318;51.262;7.066;2023-08-06T03:01:38;5.45;;;3.30;;
24161;SDS011;12318;51.262;7.066;2023-08-06T03:04:05;9.23;;;3.58;;
24161;SDS011;12318;51.262;7.066;2023-08-06T03:06:31;5.25;;;3.40;;
24161;SDS011;12318;51.262;7.066;2023-08-06T03:08:57;6.35;;;3.40;;
24161;SDS011;12318;51.262;7.066;2023-08-06T03:11:23;11.38;;;3.33;;
24161;SDS011;12318;51.262;7.066;2023-08-06T03:13:49;5.95;;;3.17;;
24161;SDS011;12318;51.262;7.066;2023-08-06T03:16:15;4.75;;;3.05;;
24161;SDS011;12318;51.262;7.066;2023-08-06T03:18:41;5.50;;;2.88;;
24161;SDS011;12318;51.262;7.066;2023-08-06T03:21:08;4.75;;;2.90;;
24161;SDS011;12318;51.262;7.066;2023-08-06T03:23:34;8.27;;;3.17;;
24161;SDS011;12318;51.262;7.066;2023-08-06T03:26:03;7.10;;;3.17;;
24161;SDS011;12318;51.262;7.066;2023-08-06T03:28:29;7.22;;;3.15;;
24161;SDS011;12318;51.262;7.066;2023-08-06T03:30:59;7.97;;;3.50;;
24161;SDS011;12318;51.262;7.066;2023-08-06T03:33:25;6.10;;;3.17;;
24161;SDS011;12318;51.262;7.066;2023-08-06T03:35:51;6.35;;;3.10;;
24161;SDS011;12318;51.262;7.066;2023-08-06T03:38:18;5.13;;;2.75;;
24161;SDS011;12318;51.262;7.066;2023-08-06T03:40:44;6.72;;;3.53;;
24161;SDS011;12318;51.262;7.066;2023-08-06T03:43:10;8.75;;;3.35;;
24161;SDS011;12318;51.262;7.066;2023-08-06T03:45:36;6.10;;;3.00;;
24161;SDS011;12318;51.262;7.066;2023-08-06T03:48:02;7.47;;;3.42;;
24161;SDS011;12318;51.262;7.066;2023-08-06T03:50:28;10.32;;;3.70;;
24161;SDS011;12318;51.262;7.066;2023-08-06T03:52:54;6.53;;;3.95;;
24161;SDS011;12318;51.262;7.066;2023-08-06T03:55:21;8.10;;;3.50;;
24161;SDS011;12318;51.262;7.066;2023-08-06T03:57:47;5.45;;;3.60;;
24161;SDS011;12318;51.262;7.066;2023-08-06T04:00:13;7.05;;;3.10;;
24161;SDS011;12318;51.262;7.066;2023-08-06T04:02:39;6.07;;;2.90;;
24161;SDS011;12318;51.262;7.066;2023-08-06T04:05:06;9.18;;;3.25;;
24161;SDS011;12318;51.262;7.066;2023-08-06T04:07:32;6.25;;;3.00;;
24161;SDS011;12318;51.262;7.066;2023-08-06T04:09:58;8.20;;;3.05;;
24161;SDS011;12318;51.262;7.066;2023-08-06T04:12:25;6.70;;;3.20;;
24161;SDS011;12318;51.262;7.066;2023-08-06T04:14:52;4.80;;;3.10;;
24161;SDS011;12318;51.262;7.066;2023-08-06T04:17:19;10.27;;;3.40;;
24161;SDS011;12318;51.262;7.066;2023-08-06T04:19:53;8.05;;;3.83;;
24161;SDS011;12318;51.262;7.066;2023-08-06T04:22:20;9.18;;;3.33;;
24161;SDS011;12318;51.262;7.066;2023-08-06T04:24:46;6.05;;;3.38;;
24161;SDS011;12318;51.262;7.066;2023-08-06T04:27:13;5.82;;;3.30;;
24161;SDS011;12318;51.262;7.066;2023-08-06T04:29:39;5.63;;;3.50;;
24161;SDS011;12318;51.262;7.066;2023-08-06T04:32:07;7.97;;;3.20;;
24161;SDS011;12318;51.262;7.066;2023-08-06T04:34:33;10.20;;;3.78;;
24161;SDS011;12318;51.262;7.066;2023-08-06T04:37:00;11.02;;;4.28;;
24161;SDS011;12318;51.262;7.066;2023-08-06T04:39:26;9.40;;;3.78;;
24161;SDS011;12318;51.262;7.066;2023-08-06T04:41:52;7.57;;;3.83;;
24161;SDS011;12318;51.262;7.066;2023-08-06T04:44:19;10.82;;;3.78;;
24161;SDS011;12318;51.262;7.066;2023-08-06T04:46:46;9.82;;;3.88;;
24161;SDS011;12318;51.262;7.066;2023-08-06T04:49:12;7.20;;;3.80;;
24161;SDS011;12318;51.262;7.066;2023-08-06T04:51:38;10.00;;;4.40;;
24161;SDS011;12318;51.262;7.066;2023-08-06T04:54:04;5.03;;;3.65;;
24161;SDS011;12318;51.262;7.066;2023-08-06T04:56:30;8.73;;;3.83;;
24161;SDS011;12318;51.262;7.066;2023-08-06T04:58:57;14.25;;;3.88;;
24161;SDS011;12318;51.262;7.066;2023-08-06T05:01:23;13.55;;;3.80;;
24161;SDS011;12318;51.262;7.066;2023-08-06T05:03:51;7.13;;;3.40;;
24161;SDS011;12318;51.262;7.066;2023-08-06T05:06:17;10.32;;;3.60;;
24161;SDS011;12318;51.262;7.066;2023-08-06T05:08:43;7.30;;;3.58;;
24161;SDS011;12318;51.262;7.066;2023-08-06T05:11:09;9.30;;;3.70;;
24161;SDS011;12318;51.262;7.066;2023-08-06T05:13:35;8.93;;;3.58;;
24161;SDS011;12318;51.262;7.066;2023-08-06T05:16:01;7.13;;;3.10;;
24161;SDS011;12318;51.262;7.066;2023-08-06T05:18:28;4.93;;;3.47;;
24161;SDS011;12318;51.262;7.066;2023-08-06T05:20:55;7.57;;;3.40;;
24161;SDS011;12318;51.262;7.066;2023-08-06T05:23:22;8.18;;;3.50;;
24161;SDS011;12318;51.262;7.066;2023-08-06T05:25:48;8.77;;;3.28;;
24161;SDS011;12318;51.262;7.066;2023-08-06T05:28:14;6.22;;;3.38;;
24161;SDS011;12318;51.262;7.066;2023-08-06T05:30:40;8.40;;;3.80;;
24161;SDS011;12318;51.262;7.066;2023-08-06T05:33:18;8.45;;;3.45;;
24161;SDS011;12318;51.262;7.066;2023-08-06T05:35:44;6.65;;;3.30;;
24161;SDS011;12318;51.262;7.066;2023-08-06T05:38:10;6.97;;;3.30;;
24161;SDS011;12318;51.262;7.066;2023-08-06T05:40:36;9.50;;;3.92;;
24161;SDS011;12318;51.262;7.066;2023-08-06T05:43:16;10.23;;;3.42;;
24161;SDS011;12318;51.262;7.066;2023-08-06T05:45:45;6.07;;;3.20;;
24161;SDS011;12318;51.262;7.066;2023-08-06T05:48:11;7.82;;;3.08;;
24161;SDS011;12318;51.262;7.066;2023-08-06T05:50:37;10.88;;;3.03;;
24161;SDS011;12318;51.262;7.066;2023-08-06T05:53:04;7.00;;;3.03;;
24161;SDS011;12318;51.262;7.066;2023-08-06T05:55:30;8.82;;;2.95;;
24161;SDS011;12318;51.262;7.066;2023-08-06T05:57:57;6.00;;;2.70;;
24161;SDS011;12318;51.262;7.066;2023-08-06T06:00:23;6.75;;;2.50;;
24161;SDS011;12318;51.262;7.066;2023-08-06T06:03:01;6.22;;;2.80;;
24161;SDS011;12318;51.262;7.066;2023-08-06T06:05:27;8.02;;;2.67;;
24161;SDS011;12318;51.262;7.066;2023-08-06T06:07:54;8.15;;;3.10;;
24161;SDS011;12318;51.262;7.066;2023-08-06T06:10:20;5.40;;;2.47;;
24161;SDS011;12318;51.262;7.066;2023-08-06T06:12:47;8.73;;;2.80;;
24161;SDS011;12318;51.262;7.066;2023-08-06T06:15:13;5.57;;;2.10;;
24161;SDS011;12318;51.262;7.066;2023-08-06T06:17:39;8.50;;;2.42;;
24161;SDS011;12318;51.262;7.066;2023-08-06T06:20:06;7.75;;;2.55;;
24161;SDS011;12318;51.262;7.066;2023-08-06T06:22:32;4.75;;;2.20;;
24161;SDS011;12318;51.262;7.066;2023-08-06T06:24:58;5.32;;;2.20;;
24161;SDS011;12318;51.262;7.066;2023-08-06T06:27:24;4.75;;;2.10;;
24161;SDS011;12318;51.262;7.066;2023-08-06T06:29:50;5.28;;;2.00;;
24161;SDS011;12318;51.262;7.066;2023-08-06T06:32:17;3.70;;;1.90;;
24161;SDS011;12318;51.262;7.066;2023-08-06T06:34:43;2.33;;;1.65;;
24161;SDS011;12318;51.262;7.066;2023-08-06T06:37:09;6.60;;;1.90;;
24161;SDS011;12318;51.262;7.066;2023-08-06T06:39:36;3.17;;;2.00;;
24161;SDS011;12318;51.262;7.066;2023-08-06T06:42:02;3.28;;;1.70;;
24161;SDS011;12318;51.262;7.066;2023-08-06T06:44:28;5.20;;;1.80;;
24161;SDS011;12318;51.262;7.066;2023-08-06T06:46:54;4.80;;;1.50;;
24161;SDS011;12318;51.262;7.066;2023-08-06T06:49:20;4.63;;;1.63;;
24161;SDS011;12318;51.262;7.066;2023-08-06T06:51:46;3.72;;;1.50;;
24161;SDS011;12318;51.262;7.066;2023-08-06T06:54:12;3.78;;;1.40;;
24161;SDS011;12318;51.262;7.066;2023-08-06T06:56:38;5.63;;;1.25;;
24161;SDS011;12318;51.262;7.066;2023-08-06T06:59:04;2.75;;;1.30;;
24161;SDS011;12318;51.262;7.066;2023-08-06T07:01:30;5.38;;;1.40;;
24161;SDS011;12318;51.262;7.066;2023-08-06T07:03:57;4.00;;;1.20;;
24161;SDS011;12318;51.262;7.066;2023-08-06T07:06:23;4.43;;;0.80;;
24161;SDS011;12318;51.262;7.066;2023-08-06T07:08:49;1.42;;;0.73;;
24161;SDS011;12318;51.262;7.066;2023-08-06T07:11:15;0.93;;;0.60;;
24161;SDS011;12318;51.262;7.066;2023-08-06T07:13:41;0.63;;;0.60;;
24161;SDS011;12318;51.262;7.066;2023-08-06T07:16:07;0.75;;;0.50;;
24161;SDS011;12318;51.262;7.066;2023-08-06T07:18:33;1.50;;;0.60;;
24161;SDS011;12318;51.262;7.066;2023-08-06T07:20:59;3.22;;;0.85;;
24161;SDS011;12318;51.262;7.066;2023-08-06T07:23:26;1.35;;;0.70;;
24161;SDS011;12318;51.262;7.066;2023-08-06T07:25:52;1.35;;;0.70;;
24161;SDS011;12318;51.262;7.066;2023-08-06T07:28:18;1.20;;;0.60;;
24161;SDS011;12318;51.262;7.066;2023-08-06T07:30:44;3.50;;;0.90;;
24161;SDS011;12318;51.262;7.066;2023-08-06T07:33:11;2.38;;;0.60;;
24161;SDS011;12318;51.262;7.066;2023-08-06T07:35:37;3.10;;;0.88;;
24161;SDS011;12318;51.262;7.066;2023-08-06T07:38:04;1.35;;;0.60;;
24161;SDS011;12318;51.262;7.066;2023-08-06T07:40:30;1.65;;;0.68;;
24161;SDS011;12318;51.262;7.066;2023-08-06T07:42:56;2.45;;;0.70;;
24161;SDS011;12318;51.262;7.066;2023-08-06T07:45:22;5.35;;;0.70;;
24161;SDS011;12318;51.262;7.066;2023-08-06T07:47:48;1.23;;;0.60;;
24161;SDS011;12318;51.262;7.066;2023-08-06T07:50:14;1.83;;;0.63;;
24161;SDS011;12318;51.262;7.066;2023-08-06T07:52:40;3.70;;;0.68;;
24161;SDS011;12318;51.262;7.066;2023-08-06T07:55:06;2.17;;;0.60;;
24161;SDS011;12318;51.262;7.066;2023-08-06T07:57:33;0.77;;;0.50;;
24161;SDS011;12318;51.262;7.066;2023-08-06T08:00:02;1.23;;;0.55;;
24161;SDS011;12318;51.262;7.066;2023-08-06T08:02:28;2.17;;;0.50;;
24161;SDS011;12318;51.262;7.066;2023-08-06T08:04:55;6.32;;;1.08;;
24161;SDS011;12318;51.262;7.066;2023-08-06T08:07:21;3.97;;;0.60;;
24161;SDS011;12318;51.262;7.066;2023-08-06T08:09:47;4.13;;;0.55;;
24161;SDS011;12318;51.262;7.066;2023-08-06T08:12:13;6.15;;;0.77;;
24161;SDS011;12318;51.262;7.066;2023-08-06T08:14:39;3.20;;;0.88;;
24161;SDS011;12318;51.262;7.066;2023-08-06T08:17:06;1.75;;;0.70;;
24161;SDS011;12318;51.262;7.066;2023-08-06T08:19:32;1.73;;;0.60;;
24161;SDS011;12318;51.262;7.066;2023-08-06T08:21:58;4.85;;;0.70;;
24161;SDS011;12318;51.262;7.066;2023-08-06T08:24:25;2.47;;;0.50;;
24161;SDS011;12318;51.262;7.066;2023-08-06T08:26:51;0.85;;;0.50;;
24161;SDS011;12318;51.262;7.066;2023-08-06T08:29:18;1.63;;;0.50;;
24161;SDS011;12318;51.262;7.066;2023-08-06T08:31:45;0.95;;;0.52;;
24161;SDS011;12318;51.262;7.066;2023-08-06T08:34:13;1.33;;;0.50;;
24161;SDS011;12318;51.262;7.066;2023-08-06T08:36:42;1.52;;;0.50;;
24161;SDS011;12318;51.262;7.066;2023-08-06T08:39:11;2.80;;;0.70;;
24161;SDS011;12318;51.262;7.066;2023-08-06T08:41:37;1.25;;;0.50;;
24161;SDS011;12318;51.262;7.066;2023-08-06T08:44:08;0.50;;;0.47;;
24161;SDS011;12318;51.262;7.066;2023-08-06T08:46:35;2.17;;;0.68;;
24161;SDS011;12318;51.262;7.066;2023-08-06T08:49:01;0.98;;;0.40;;
24161;SDS011;12318;51.262;7.066;2023-08-06T08:51:28;0.80;;;0.60;;
24161;SDS011;12318;51.262;7.066;2023-08-06T08:53:54;0.88;;;0.50;;
24161;SDS011;12318;51.262;7.066;2023-08-06T08:56:22;1.10;;;0.60;;
24161;SDS011;12318;51.262;7.066;2023-08-06T08:58:49;4.03;;;0.82;;
24161;SDS011;12318;51.262;7.066;2023-08-06T09:01:15;5.60;;;0.93;;
24161;SDS011;12318;51.262;7.066;2023-08-06T09:06:46;1.25;;;0.57;;
24161;SDS011;12318;51.262;7.066;2023-08-06T09:11:50;2.67;;;0.80;;
24161;SDS011;12318;51.262;7.066;2023-08-06T09:14:17;2.30;;;0.80;;
24161;SDS011;12318;51.262;7.066;2023-08-06T09:16:43;4.78;;;1.02;;
24161;SDS011;12318;51.262;7.066;2023-08-06T09:19:13;1.38;;;0.85;;
24161;SDS011;12318;51.262;7.066;2023-08-06T09:21:43;1.55;;;0.80;;
24161;SDS011;12318;51.262;7.066;2023-08-06T09:24:09;3.25;;;0.77;;
24161;SDS011;12318;51.262;7.066;2023-08-06T09:26:36;3.03;;;1.20;;
24161;SDS011;12318;51.262;7.066;2023-08-06T09:29:05;5.78;;;1.42;;
24161;SDS011;12318;51.262;7.066;2023-08-06T09:31:53;18.50;;;2.58;;
24161;SDS011;12318;51.262;7.066;2023-08-06T09:34:19;21.38;;;3.67;;
24161;SDS011;12318;51.262;7.066;2023-08-06T09:36:47;15.98;;;2.83;;
24161;SDS011;12318;51.262;7.066;2023-08-06T09:39:17;9.25;;;2.67;;
24161;SDS011;12318;51.262;7.066;2023-08-06T09:41:44;8.15;;;3.80;;
24161;SDS011;12318;51.262;7.066;2023-08-06T09:44:21;8.00;;;3.90;;
24161;SDS011;12318;51.262;7.066;2023-08-06T09:49:15;5.60;;;3.10;;
24161;SDS011;12318;51.262;7.066;2023-08-06T09:51:41;6.35;;;3.40;;
24161;SDS011;12318;51.262;7.066;2023-08-06T09:54:09;5.15;;;3.33;;
24161;SDS011;12318;51.262;7.066;2023-08-06T09:56:37;6.45;;;3.58;;
24161;SDS011;12318;51.262;7.066;2023-08-06T09:59:04;6.10;;;3.03;;
24161;SDS011;12318;51.262;7.066;2023-08-06T10:01:32;4.00;;;2.63;;
24161;SDS011;12318;51.262;7.066;2023-08-06T10:03:58;6.95;;;4.55;;
24161;SDS011;12318;51.262;7.066;2023-08-06T10:06:25;6.80;;;4.80;;
24161;SDS011;12318;51.262;7.066;2023-08-06T10:08:52;8.98;;;4.97;;
24161;SDS011;12318;51.262;7.066;2023-08-06T10:11:18;7.47;;;4.95;;
24161;SDS011;12318;51.262;7.066;2023-08-06T10:13:47;9.20;;;4.85;;
24161;SDS011;12318;51.262;7.066;2023-08-06T10:16:13;9.27;;;3.88;;
24161;SDS011;12318;51.262;7.066;2023-08-06T10:18:40;7.90;;;4.25;;
24161;SDS011;12318;51.262;7.066;2023-08-06T10:21:09;9.50;;;6.18;;
24161;SDS011;12318;51.262;7.066;2023-08-06T10:23:40;8.63;;;4.95;;
24161;SDS011;12318;51.262;7.066;2023-08-06T10:26:06;9.40;;;6.72;;
24161;SDS011;12318;51.262;7.066;2023-08-06T10:28:36;10.95;;;6.43;;
24161;SDS011;12318;51.262;7.066;2023-08-06T10:31:02;9.82;;;7.18;;
24161;SDS011;12318;51.262;7.066;2023-08-06T10:33:44;11.98;;;8.35;;
24161;SDS011;12318;51.262;7.066;2023-08-06T10:36:10;13.05;;;8.25;;
24161;SDS011;12318;51.262;7.066;2023-08-06T10:38:54;15.02;;;8.65;;
24161;SDS011;12318;51.262;7.066;2023-08-06T10:41:27;17.58;;;10.45;;
24161;SDS011;12318;51.262;7.066;2023-08-06T10:44:12;17.50;;;10.95;;
24161;SDS011;12318;51.262;7.066;2023-08-06T10:46:38;15.73;;;9.52;;
24161;SDS011;12318;51.262;7.066;2023-08-06T10:49:06;14.45;;;9.90;;
24161;SDS011;12318;51.262;7.066;2023-08-06T10:51:33;7.80;;;3.35;;
24161;SDS011;12318;51.262;7.066;2023-08-06T10:53:59;3.53;;;1.95;;
24161;SDS011;12318;51.262;7.066;2023-08-06T10:56:25;3.35;;;1.80;;
24161;SDS011;12318;51.262;7.066;2023-08-06T10:58:56;2.17;;;1.40;;
24161;SDS011;12318;51.262;7.066;2023-08-06T11:01:23;3.00;;;1.85;;
24161;SDS011;12318;51.262;7.066;2023-08-06T11:03:49;3.00;;;1.50;;
24161;SDS011;12318;51.262;7.066;2023-08-06T11:06:18;2.42;;;2.00;;
24161;SDS011;12318;51.262;7.066;2023-08-06T11:08:51;2.45;;;1.85;;
24161;SDS011;12318;51.262;7.066;2023-08-06T11:11:18;3.03;;;1.77;;
24161;SDS011;12318;51.262;7.066;2023-08-06T11:13:48;6.30;;;2.35;;
24161;SDS011;12318;51.262;7.066;2023-08-06T11:16:15;5.22;;;1.80;;
24161;SDS011;12318;51.262;7.066;2023-08-06T11:18:41;4.03;;;1.73;;
24161;SDS011;12318;51.262;7.066;2023-08-06T11:21:08;2.80;;;1.52;;
24161;SDS011;12318;51.262;7.066;2023-08-06T11:23:34;2.38;;;1.20;;
24161;SDS011;12318;51.262;7.066;2023-08-06T11:26:01;2.15;;;1.30;;
24161;SDS011;12318;51.262;7.066;2023-08-06T11:28:28;2.15;;;1.00;;
24161;SDS011;12318;51.262;7.066;2023-08-06T11:30:54;3.00;;;1.20;;
24161;SDS011;12318;51.262;7.066;2023-08-06T11:33:24;3.15;;;1.30;;
24161;SDS011;12318;51.262;7.066;2023-08-06T11:35:51;3.47;;;1.58;;
24161;SDS011;12318;51.262;7.066;2023-08-06T11:38:17;3.10;;;2.00;;
24161;SDS011;12318;51.262;7.066;2023-08-06T11:40:44;3.55;;;2.47;;
24161;SDS011;12318;51.262;7.066;2023-08-06T11:43:11;6.45;;;2.45;;
24161;SDS011;12318;51.262;7.066;2023-08-06T11:45:37;4.22;;;1.88;;
24161;SDS011;12318;51.262;7.066;2023-08-06T11:48:04;3.13;;;2.58;;
24161;SDS011;12318;51.262;7.066;2023-08-06T11:50:31;4.40;;;3.00;;
24161;SDS011;12318;51.262;7.066;2023-08-06T11:52:59;3.75;;;2.63;;
24161;SDS011;12318;51.262;7.066;2023-08-06T11:55:26;5.68;;;2.72;;
24161;SDS011;12318;51.262;7.066;2023-08-06T11:57:53;3.83;;;2.88;;
24161;SDS011;12318;51.262;7.066;2023-08-06T12:00:20;8.65;;;3.28;;
24161;SDS011;12318;51.262;7.066;2023-08-06T12:02:48;6.53;;;3.83;;
24161;SDS011;12318;51.262;7.066;2023-08-06T12:05:19;5.03;;;3.33;;
24161;SDS011;12318;51.262;7.066;2023-08-06T12:07:47;8.90;;;4.60;;
24161;SDS011;12318;51.262;7.066;2023-08-06T12:10:13;7.47;;;4.05;;
24161;SDS011;12318;51.262;7.066;2023-08-06T12:12:40;4.80;;;3.80;;
24161;SDS011;12318;51.262;7.066;2023-08-06T12:15:09;6.00;;;4.53;;
24161;SDS011;12318;51.262;7.066;2023-08-06T12:17:36;6.15;;;4.28;;
24161;SDS011;12318;51.262;7.066;2023-08-06T12:20:03;7.47;;;4.90;;
24161;SDS011;12318;51.262;7.066;2023-08-06T12:22:32;9.50;;;5.63;;
24161;SDS011;12318;51.262;7.066;2023-08-06T12:25:03;14.70;;;6.13;;
24161;SDS011;12318;51.262;7.066;2023-08-06T12:27:36;8.70;;;4.63;;
24161;SDS011;12318;51.262;7.066;2023-08-06T12:30:02;12.77;;;5.97;;
24161;SDS011;12318;51.262;7.066;2023-08-06T12:32:29;13.10;;;6.05;;
24161;SDS011;12318;51.262;7.066;2023-08-06T12:34:55;7.15;;;4.20;;
24161;SDS011;12318;51.262;7.066;2023-08-06T12:37:21;7.95;;;3.67;;
24161;SDS011;12318;51.262;7.066;2023-08-06T12:39:48;9.23;;;4.22;;
24161;SDS011;12318;51.262;7.066;2023-08-06T12:42:14;7.10;;;4.75;;
24161;SDS011;12318;51.262;7.066;2023-08-06T12:44:40;5.10;;;4.07;;
24161;SDS011;12318;51.262;7.066;2023-08-06T12:47:07;8.88;;;5.18;;
24161;SDS011;12318;51.262;7.066;2023-08-06T12:49:33;8.52;;;6.30;;
24161;SDS011;12318;51.262;7.066;2023-08-06T12:51:59;7.90;;;6.03;;
24161;SDS011;12318;51.262;7.066;2023-08-06T12:54:25;8.38;;;6.85;;
24161;SDS011;12318;51.262;7.066;2023-08-06T12:56:52;7.50;;;5.55;;
24161;SDS011;12318;51.262;7.066;2023-08-06T12:59:19;7.55;;;5.45;;
24161;SDS011;12318;51.262;7.066;2023-08-06T13:01:45;8.20;;;5.22;;
24161;SDS011;12318;51.262;7.066;2023-08-06T13:04:11;8.57;;;6.07;;
24161;SDS011;12318;51.262;7.066;2023-08-06T13:06:38;8.98;;;6.38;;
24161;SDS011;12318;51.262;7.066;2023-08-06T13:09:05;7.65;;;5.88;;
24161;SDS011;12318;51.262;7.066;2023-08-06T13:11:32;12.88;;;8.10;;
24161;SDS011;12318;51.262;7.066;2023-08-06T13:14:03;14.13;;;8.02;;
24161;SDS011;12318;51.262;7.066;2023-08-06T13:16:29;9.30;;;6.57;;
24161;SDS011;12318;51.262;7.066;2023-08-06T13:18:55;12.07;;;8.57;;
24161;SDS011;12318;51.262;7.066;2023-08-06T13:21:21;8.38;;;6.47;;
24161;SDS011;12318;51.262;7.066;2023-08-06T13:23:47;8.00;;;6.32;;
24161;SDS011;12318;51.262;7.066;2023-08-06T13:26:13;10.30;;;6.60;;
24161;SDS011;12318;51.262;7.066;2023-08-06T13:28:41;10.40;;;7.15;;
24161;SDS011;12318;51.262;7.066;2023-08-06T13:31:07;9.77;;;7.13;;
24161;SDS011;12318;51.262;7.066;2023-08-06T13:33:36;11.80;;;7.18;;
24161;SDS011;12318;51.262;7.066;2023-08-06T13:36:02;7.20;;;4.95;;
24161;SDS011;12318;51.262;7.066;2023-08-06T13:38:28;11.68;;;7.10;;
24161;SDS011;12318;51.262;7.066;2023-08-06T13:40:54;9.93;;;6.72;;
24161;SDS011;12318;51.262;7.066;2023-08-06T13:43:20;8.20;;;5.93;;
24161;SDS011;12318;51.262;7.066;2023-08-06T13:45:46;5.93;;;4.22;;
24161;SDS011;12318;51.262;7.066;2023-08-06T13:48:12;9.45;;;4.85;;
24161;SDS011;12318;51.262;7.066;2023-08-06T13:50:38;10.88;;;6.60;;
24161;SDS011;12318;51.262;7.066;2023-08-06T13:53:05;12.27;;;7.13;;
24161;SDS011;12318;51.262;7.066;2023-08-06T13:55:31;9.80;;;6.93;;
24161;SDS011;12318;51.262;7.066;2023-08-06T13:57:58;10.73;;;6.50;;
24161;SDS011;12318;51.262;7.066;2023-08-06T14:00:24;9.13;;;6.60;;
24161;SDS011;12318;51.262;7.066;2023-08-06T14:02:50;8.52;;;6.07;;
24161;SDS011;12318;51.262;7.066;2023-08-06T14:05:16;9.88;;;6.80;;
24161;SDS011;12318;51.262;7.066;2023-08-06T14:07:42;14.10;;;7.10;;
24161;SDS011;12318;51.262;7.066;2023-08-06T14:10:08;9.93;;;5.15;;
24161;SDS011;12318;51.262;7.066;2023-08-06T14:12:35;11.45;;;4.97;;
24161;SDS011;12318;51.262;7.066;2023-08-06T14:15:01;9.48;;;4.90;;
24161;SDS011;12318;51.262;7.066;2023-08-06T14:17:29;7.97;;;4.68;;
24161;SDS011;12318;51.262;7.066;2023-08-06T14:19:55;6.75;;;4.28;;
24161;SDS011;12318;51.262;7.066;2023-08-06T14:22:21;9.02;;;4.80;;
24161;SDS011;12318;51.262;7.066;2023-08-06T14:24:48;10.25;;;5.45;;
24161;SDS011;12318;51.262;7.066;2023-08-06T14:27:14;8.15;;;4.63;;
24161;SDS011;12318;51.262;7.066;2023-08-06T14:29:40;16.65;;;5.18;;
24161;SDS011;12318;51.262;7.066;2023-08-06T14:32:06;9.35;;;5.20;;
24161;SDS011;12318;51.262;7.066;2023-08-06T14:34:32;7.93;;;4.78;;
24161;SDS011;12318;51.262;7.066;2023-08-06T14:36:59;7.82;;;4.90;;
24161;SDS011;12318;51.262;7.066;2023-08-06T14:39:25;7.28;;;4.53;;
24161;SDS011;12318;51.262;7.066;2023-08-06T14:41:51;9.27;;;4.70;;
24161;SDS011;12318;51.262;7.066;2023-08-06T14:44:17;8.85;;;4.25;;
24161;SDS011;12318;51.262;7.066;2023-08-06T14:46:43;8.10;;;4.55;;
24161;SDS011;12318;51.262;7.066;2023-08-06T14:49:10;9.68;;;4.18;;
24161;SDS011;12318;51.262;7.066;2023-08-06T14:51:36;6.20;;;3.45;;
24161;SDS011;12318;51.262;7.066;2023-08-06T14:54:03;9.60;;;4.97;;
24161;SDS011;12318;51.262;7.066;2023-08-06T14:56:29;8.15;;;4.63;;
24161;SDS011;12318;51.262;7.066;2023-08-06T14:58:56;9.23;;;4.85;;